createdAt,value
2018-02-03T00:00:15.558Z,65.80
2018-02-03T00:02:43.978Z,63.73
2018-02-03T00:05:12.522Z,67.83
2018-02-03T00:07:41.710Z,87.27
2018-02-03T00:10:10.130Z,83.70
2018-02-03T00:12:38.582Z,80.20
2018-02-03T00:15:06.998Z,95.83
2018-02-03T00:17:35.448Z,97.83
2018-02-03T00:20:05.917Z,88.23
2018-02-03T00:22:34.331Z,90.77
2018-02-03T00:25:02.772Z,88.77
2018-02-03T00:27:31.721Z,88.87
2018-02-03T00:30:01.178Z,86.47
2018-02-03T00:32:29.832Z,91.10
2018-02-03T00:34:58.550Z,75.47
2018-02-03T00:37:27.191Z,86.10
2018-02-03T00:39:55.921Z,102.40
2018-02-03T00:42:24.915Z,91.57
2018-02-03T00:44:53.343Z,103.00
2018-02-03T00:47:22.538Z,100.27
2018-02-03T00:49:52.312Z,100.27
2018-02-03T00:52:20.885Z,105.43
2018-02-03T00:54:49.516Z,98.63
2018-02-03T00:57:19.180Z,96.33
2018-02-03T00:59:47.827Z,96.17
2018-02-03T01:02:16.551Z,91.83
2018-02-03T01:04:45.545Z,80.03
2018-02-03T01:07:14.230Z,78.43
2018-02-03T01:09:42.873Z,74.27
2018-02-03T01:12:11.891Z,72.30
2018-02-03T01:14:40.595Z,65.23
2018-02-03T01:17:09.226Z,69.23
2018-02-03T01:19:38.789Z,65.50
2018-02-03T01:22:07.474Z,73.40
2018-02-03T01:24:36.164Z,77.37
2018-02-03T01:27:05.198Z,72.93
2018-02-03T01:29:34.662Z,77.83
2018-02-03T01:32:03.281Z,75.83
2018-02-03T01:34:32.846Z,67.17
2018-02-03T01:37:01.532Z,64.30
2018-02-03T01:39:30.162Z,57.03
2018-02-03T01:41:59.680Z,50.60
2018-02-03T01:44:29.126Z,47.97
2018-02-03T01:46:57.713Z,44.97
2018-02-03T01:49:26.498Z,40.70
2018-02-03T01:51:55.184Z,40.10
2018-02-03T01:54:23.724Z,32.97
2018-02-03T02:03:39.442Z,27.07
2018-02-03T02:06:08.898Z,26.30
2018-02-03T02:08:37.528Z,28.07
2018-02-03T02:11:06.994Z,24.03
2018-02-03T02:13:35.679Z,22.87
2018-02-03T02:16:04.365Z,22.50
2018-02-03T02:18:33.098Z,19.20
2018-02-03T02:21:02.549Z,19.00
2018-02-03T02:23:31.235Z,20.00
2018-02-03T02:26:00.120Z,17.90
2018-02-03T02:28:28.814Z,17.63
2018-02-03T02:30:57.502Z,19.47
2018-02-03T02:33:26.455Z,18.83
2018-02-03T02:35:55.180Z,17.50
2018-02-03T02:38:23.767Z,17.27
2018-02-03T02:40:52.608Z,17.83
2018-02-03T02:43:21.168Z,17.57
2018-02-03T02:45:50.745Z,15.77
2018-02-03T02:48:19.531Z,21.33
2018-02-03T02:50:48.315Z,15.83
2018-02-03T02:53:17.001Z,17.23
2018-02-03T02:55:45.993Z,19.50
2018-02-03T02:58:14.634Z,17.07
2018-02-03T03:00:43.367Z,16.07
2018-02-03T03:03:12.519Z,15.10
2018-02-03T03:05:41.867Z,15.60
2018-02-03T03:08:10.454Z,15.83
2018-02-03T03:10:39.147Z,17.53
2018-02-03T03:13:07.812Z,15.03
2018-02-03T03:15:36.506Z,18.37
2018-02-03T03:18:05.351Z,15.87
2018-02-03T03:20:34.081Z,27.43
2018-02-03T03:23:02.668Z,49.17
2018-02-03T03:25:31.406Z,21.03
2018-02-03T03:28:00.862Z,15.47
2018-02-03T03:30:29.591Z,16.90
2018-02-03T03:32:59.057Z,14.47
2018-02-03T03:35:28.408Z,14.77
2018-02-03T03:37:57.844Z,25.60
2018-02-03T03:40:26.947Z,28.87
2018-02-03T03:42:55.535Z,41.37
2018-02-03T03:45:24.220Z,18.03
2018-02-03T03:47:53.004Z,13.93
2018-02-03T03:50:21.716Z,13.50
2018-02-03T03:52:50.376Z,15.03
2018-02-03T03:55:19.066Z,16.60
2018-02-03T03:57:47.748Z,14.30
2018-02-03T04:00:16.433Z,14.37
2018-02-03T04:02:45.024Z,14.07
2018-02-03T04:05:13.707Z,13.40
2018-02-03T04:07:42.393Z,14.13
2018-02-03T04:10:11.078Z,15.13
2018-02-03T04:12:39.765Z,16.60
2018-02-03T04:15:08.340Z,15.17
2018-02-03T04:17:37.026Z,12.90
2018-02-03T04:20:05.722Z,11.53
2018-02-03T04:22:34.409Z,13.70
2018-02-03T04:25:03.292Z,15.63
2018-02-03T04:27:31.977Z,12.07
2018-02-03T04:30:00.773Z,14.20
2018-02-03T04:32:29.459Z,13.03
2018-02-03T04:34:58.036Z,13.70
2018-02-03T04:37:26.673Z,16.27
2018-02-03T04:39:56.165Z,19.27
2018-02-03T04:42:25.629Z,15.97
2018-02-03T04:44:54.277Z,15.70
2018-02-03T04:47:23.001Z,16.40
2018-02-03T04:49:51.690Z,15.67
2018-02-03T04:52:20.372Z,15.00
2018-02-03T04:54:49.365Z,14.90
2018-02-03T04:57:18.051Z,20.00
2018-02-03T04:59:46.684Z,23.27
2018-02-03T05:02:16.146Z,15.17
2018-02-03T05:04:44.816Z,12.20
2018-02-03T05:07:13.507Z,15.23
2018-02-03T05:09:42.402Z,15.77
2018-02-03T05:12:10.987Z,15.27
2018-02-03T05:14:39.676Z,13.23
2018-02-03T05:17:08.359Z,14.13
2018-02-03T05:19:37.001Z,11.63
2018-02-03T05:22:06.445Z,13.47
2018-02-03T05:24:35.240Z,14.30
2018-02-03T05:27:03.878Z,13.83
2018-02-03T05:29:33.183Z,14.53
2018-02-03T05:32:02.266Z,9.93
2018-02-03T05:34:31.716Z,11.57
2018-02-03T05:37:00.404Z,16.43
2018-02-03T05:39:29.466Z,19.23
2018-02-03T05:41:58.191Z,16.10
2018-02-03T05:44:26.867Z,14.30
2018-02-03T05:46:56.068Z,12.93
2018-02-03T05:49:24.692Z,12.70
2018-02-03T05:51:54.000Z,11.60
2018-02-03T05:54:23.452Z,11.23
2018-02-03T05:56:52.041Z,10.87
2018-02-03T05:59:20.626Z,11.30
2018-02-03T06:01:49.362Z,14.23
2018-02-03T06:04:18.821Z,12.93
2018-02-03T06:06:47.507Z,13.53
2018-02-03T06:09:16.235Z,11.80
2018-02-03T06:11:45.692Z,13.00
2018-02-03T06:14:14.897Z,16.90
2018-02-03T06:16:43.588Z,20.17
2018-02-03T06:19:12.258Z,15.10
2018-02-03T06:21:40.899Z,12.17
2018-02-03T06:24:10.349Z,11.63
2018-02-03T06:26:39.035Z,8.30
2018-02-03T06:29:07.621Z,14.23
2018-02-03T06:31:36.595Z,13.87
2018-02-03T06:34:05.239Z,11.53
2018-02-03T06:36:34.551Z,11.93
2018-02-03T06:39:04.002Z,9.60
2018-02-03T06:41:32.548Z,12.37
2018-02-03T06:44:01.096Z,13.43
2018-02-03T06:46:29.729Z,12.13
2018-02-03T06:48:58.275Z,29.50
2018-02-03T06:51:27.591Z,14.50
2018-02-03T06:53:56.948Z,14.80
2018-02-03T06:56:25.507Z,14.30
2018-02-03T06:58:54.053Z,15.90
2018-02-03T07:01:22.653Z,16.77
2018-02-03T07:03:51.196Z,16.60
2018-02-03T07:06:19.753Z,21.07
2018-02-03T07:08:48.476Z,25.07
2018-02-03T07:11:17.793Z,16.43
2018-02-03T07:13:46.340Z,21.97
2018-02-03T07:18:49.651Z,20.37
2018-02-03T07:21:18.393Z,31.00
2018-02-03T07:23:46.976Z,25.33
2018-02-03T07:26:15.560Z,31.87
2018-02-03T07:28:44.188Z,42.47
2018-02-03T07:31:12.771Z,55.27
2018-02-03T07:33:41.338Z,32.43
2018-02-03T07:36:09.932Z,28.50
2018-02-03T07:38:39.261Z,24.07
2018-02-03T07:41:08.584Z,24.23
2018-02-03T07:43:37.329Z,20.63
2018-02-03T07:46:05.896Z,27.87
2018-02-03T07:48:34.444Z,29.73
2018-02-03T07:51:03.044Z,30.40
2018-02-03T07:53:31.600Z,16.07
2018-02-03T07:56:00.150Z,34.53
2018-02-03T07:58:28.751Z,36.47
2018-02-03T08:00:58.111Z,26.23
2018-02-03T08:03:26.666Z,27.87
2018-02-03T08:05:55.274Z,32.37
2018-02-03T08:08:23.820Z,14.17
2018-02-03T08:10:53.132Z,33.63
2018-02-03T08:13:21.872Z,34.13
2018-02-03T08:15:50.484Z,23.57
2018-02-03T08:18:19.805Z,20.33
2018-02-03T08:20:48.429Z,68.10
2018-02-03T08:23:16.980Z,79.40
2018-02-03T08:25:45.548Z,387.33
2018-02-03T08:28:14.373Z,758.20
2018-02-03T08:30:42.936Z,257.40
2018-02-03T08:33:11.493Z,120.60
2018-02-03T08:35:40.088Z,56.63
2018-02-03T08:38:08.641Z,32.00
2018-02-03T08:40:37.249Z,62.40
2018-02-03T08:43:06.771Z,82.77
2018-02-03T08:45:35.327Z,87.87
2018-02-03T08:48:04.646Z,55.07
2018-02-03T08:50:33.392Z,47.27
2018-02-03T08:53:01.998Z,43.57
2018-02-03T08:55:30.559Z,36.47
2018-02-03T08:57:59.167Z,18.20
2018-02-03T09:00:28.591Z,16.80
2018-02-03T09:02:57.150Z,21.00
2018-02-03T09:05:26.517Z,22.53
2018-02-03T09:07:55.068Z,15.70
2018-02-03T09:10:23.670Z,19.67
2018-02-03T09:12:52.416Z,18.97
2018-02-03T09:15:20.980Z,18.17
2018-02-03T09:17:49.532Z,16.33
2018-02-03T09:20:18.441Z,18.57
2018-02-03T09:22:46.992Z,20.87
2018-02-03T09:25:15.544Z,22.03
2018-02-03T09:27:45.316Z,23.33
2018-02-03T09:30:13.872Z,20.53
2018-02-03T09:32:42.433Z,21.60
2018-02-03T09:35:11.048Z,24.27
2018-02-03T09:37:39.928Z,30.90
2018-02-03T09:40:08.481Z,36.00
2018-02-03T09:42:37.086Z,23.33
2018-02-03T09:45:05.655Z,30.57
2018-02-03T09:47:34.210Z,61.60
2018-02-03T09:50:02.960Z,107.03
2018-02-03T09:52:31.527Z,115.17
2018-02-03T09:55:00.081Z,87.53
2018-02-03T09:57:28.893Z,71.77
2018-02-03T09:59:57.458Z,140.03
2018-02-03T10:02:26.020Z,114.40
2018-02-03T10:04:54.717Z,85.53
2018-02-03T10:07:23.271Z,117.47
2018-02-03T10:09:51.820Z,94.83
2018-02-03T10:12:20.454Z,83.27
2018-02-03T10:14:49.004Z,78.30
2018-02-03T10:17:17.552Z,68.47
2018-02-03T10:19:46.413Z,92.97
2018-02-03T10:22:14.974Z,75.57
2018-02-03T10:24:43.533Z,99.07
2018-02-03T10:27:12.195Z,66.30
2018-02-03T10:29:40.748Z,112.00
2018-02-03T10:32:10.069Z,140.37
2018-02-03T10:34:38.870Z,68.53
2018-02-03T10:37:07.439Z,133.90
2018-02-03T10:39:35.990Z,68.60
2018-02-03T10:42:04.888Z,50.03
2018-02-03T10:44:34.224Z,149.53
2018-02-03T10:47:02.786Z,338.13
2018-02-03T10:49:32.155Z,141.77
2018-02-03T10:52:00.700Z,37.30
2018-02-03T10:54:29.253Z,30.53
2018-02-03T10:56:58.625Z,31.73
2018-02-03T10:59:27.228Z,28.50
2018-02-03T11:01:55.784Z,27.23
2018-02-03T11:04:24.565Z,26.03
2018-02-03T11:06:53.119Z,26.13
2018-02-03T11:09:21.696Z,22.77
2018-02-03T11:11:50.380Z,25.23
2018-02-03T11:14:18.940Z,321.33
2018-02-03T11:16:48.293Z,650.83
2018-02-03T11:19:17.296Z,283.80
2018-02-03T11:21:45.852Z,404.00
2018-02-03T11:24:14.416Z,365.70
2018-02-03T11:26:43.784Z,98.80
2018-02-03T11:29:12.336Z,18.13
2018-02-03T11:31:40.892Z,20.23
2018-02-03T11:34:09.488Z,26.63
2018-02-03T11:36:38.061Z,213.33
2018-02-03T11:39:06.628Z,45.83
2018-02-03T11:41:35.996Z,419.43
2018-02-03T11:44:04.604Z,303.83
2018-02-03T11:46:33.928Z,59.90
2018-02-03T11:49:02.751Z,557.37
2018-02-03T11:51:31.310Z,485.60
2018-02-03T11:53:59.869Z,339.27
2018-02-03T11:56:29.231Z,180.70
2018-02-03T11:58:57.784Z,106.00
2018-02-03T12:01:26.341Z,31.03
2018-02-03T12:03:55.796Z,24.83
2018-02-03T12:06:24.352Z,763.53
2018-02-03T12:08:52.917Z,524.30
2018-02-03T12:11:21.520Z,333.03
2018-02-03T12:13:50.085Z,377.87
2018-02-03T12:16:18.645Z,303.33
2018-02-03T12:18:48.013Z,30.50
2018-02-03T12:21:16.592Z,28.07
2018-02-03T12:23:45.149Z,34.17
2018-02-03T12:26:13.758Z,68.73
2018-02-03T12:28:43.080Z,47.77
2018-02-03T12:31:11.640Z,23.40
2018-02-03T12:33:40.244Z,19.80
2018-02-03T12:36:08.803Z,30.83
2018-02-03T12:38:37.356Z,28.60
2018-02-03T12:41:05.953Z,36.90
2018-02-03T12:43:34.504Z,31.20
2018-02-03T12:46:03.924Z,35.43
2018-02-03T12:48:32.552Z,37.00
2018-02-03T12:51:01.868Z,39.53
2018-02-03T12:53:30.412Z,13.27
2018-02-03T12:55:59.012Z,39.47
2018-02-03T12:58:28.328Z,23.77
2018-02-03T13:00:57.645Z,20.87
2018-02-03T13:03:26.416Z,19.93
2018-02-03T13:05:54.972Z,17.53
2018-02-03T13:08:23.528Z,21.07
2018-02-03T13:10:52.268Z,13.00
2018-02-03T13:13:20.848Z,20.10
2018-02-03T13:15:50.168Z,31.07
2018-02-03T13:18:19.085Z,44.17
2018-02-03T13:20:47.644Z,350.67
2018-02-03T13:25:49.832Z,27.53
2018-02-03T13:28:18.396Z,50.90
2018-02-03T13:30:47.717Z,62.93
2018-02-03T13:33:16.596Z,51.40
2018-02-03T13:35:45.143Z,104.20
2018-02-03T13:38:13.700Z,56.07
2018-02-03T13:40:42.420Z,87.23
2018-02-03T13:43:11.752Z,36.87
2018-02-03T13:45:40.300Z,11.73
2018-02-03T13:48:09.660Z,18.93
2018-02-03T13:50:38.216Z,8.30
2018-02-03T13:53:06.774Z,16.27
2018-02-03T13:55:35.368Z,13.93
2018-02-03T13:58:03.918Z,9.63
2018-02-03T14:00:32.604Z,12.43
2018-02-03T14:03:01.200Z,17.40
2018-02-03T14:05:29.877Z,24.20
2018-02-03T14:07:58.564Z,12.90
2018-02-03T14:10:28.237Z,9.50
2018-02-03T14:12:56.928Z,7.77
2018-02-03T14:15:25.569Z,16.33
2018-02-03T14:17:54.263Z,13.00
2018-02-03T14:20:22.959Z,11.70
2018-02-03T14:22:51.595Z,9.63
2018-02-03T14:25:21.046Z,10.33
2018-02-03T14:27:49.831Z,16.30
2018-02-03T14:30:18.379Z,20.30
2018-02-03T14:32:47.046Z,30.90
2018-02-03T14:35:16.463Z,17.83
2018-02-03T14:37:45.265Z,27.70
2018-02-03T14:40:14.200Z,26.03
2018-02-03T14:42:43.664Z,17.93
2018-02-03T14:45:12.311Z,16.73
2018-02-03T14:47:42.067Z,15.00
2018-02-03T14:50:10.747Z,14.97
2018-02-03T14:52:39.389Z,70.27
2018-02-03T14:55:08.128Z,332.40
2018-02-03T14:57:36.706Z,303.60
2018-02-03T15:00:05.391Z,207.90
2018-02-03T15:02:34.164Z,100.53
2018-02-03T15:05:02.850Z,27.17
2018-02-03T15:07:33.347Z,22.40
2018-02-03T15:10:03.855Z,351.27
2018-02-03T15:12:32.505Z,106.37
2018-02-03T15:15:01.227Z,96.87
2018-02-03T15:17:30.113Z,127.23
2018-02-03T15:19:58.809Z,126.50
2018-02-03T15:22:27.368Z,30.23
2018-02-03T15:24:56.849Z,37.93
2018-02-03T15:27:25.412Z,18.40
2018-02-03T15:29:54.060Z,29.87
2018-02-03T15:32:22.790Z,282.50
2018-02-03T15:34:51.449Z,160.17
2018-02-03T15:37:20.162Z,71.93
2018-02-03T15:39:49.107Z,39.33
2018-02-03T15:42:18.564Z,40.37
2018-02-03T15:44:47.250Z,48.80
2018-02-03T15:47:16.036Z,19.77
2018-02-03T15:49:44.612Z,12.63
2018-02-03T15:52:13.359Z,10.50
2018-02-03T15:54:42.114Z,15.87
2018-02-03T15:57:10.846Z,34.00
2018-02-03T15:59:39.533Z,19.80
2018-02-03T16:02:08.428Z,139.77
2018-02-03T16:04:37.891Z,105.27
2018-02-03T16:07:06.480Z,139.50
2018-02-03T16:09:35.474Z,150.37
2018-02-03T16:12:04.256Z,159.83
2018-02-03T16:14:32.941Z,97.40
2018-02-03T16:17:01.675Z,71.07
2018-02-03T16:19:31.036Z,72.47
2018-02-03T16:21:59.662Z,93.30
2018-02-03T16:24:29.320Z,87.73
2018-02-03T16:26:58.016Z,57.97
2018-02-03T16:29:28.242Z,96.47
2018-02-03T16:31:57.430Z,129.13
2018-02-03T16:34:26.117Z,130.53
2018-02-03T16:36:55.726Z,70.80
2018-02-03T16:39:24.508Z,80.30
2018-02-03T16:41:53.193Z,125.50
2018-02-03T16:44:21.781Z,77.03
2018-02-03T16:46:50.915Z,65.53
2018-02-03T16:49:20.387Z,95.50
2018-02-03T16:51:49.166Z,63.80
2018-02-03T16:54:18.219Z,59.20
2018-02-03T16:56:47.668Z,46.87
2018-02-03T16:59:16.408Z,64.53
2018-02-03T17:01:45.138Z,77.50
2018-02-03T17:04:13.891Z,65.17
2018-02-03T17:06:42.581Z,68.73
2018-02-03T17:09:11.273Z,52.77
2018-02-03T17:11:39.874Z,43.83
2018-02-03T17:14:08.657Z,43.63
2018-02-03T17:16:38.209Z,52.73
2018-02-03T17:19:06.852Z,96.63
2018-02-03T17:21:35.603Z,141.57
2018-02-03T17:24:04.683Z,73.77
2018-02-03T17:26:33.260Z,79.70
2018-02-03T17:29:01.946Z,103.40
2018-02-03T17:31:30.639Z,123.47
2018-02-03T17:33:59.316Z,182.50
2018-02-03T17:36:33.503Z,165.07
2018-02-03T17:41:59.638Z,75.03
2018-02-03T17:44:28.368Z,64.00
2018-02-03T17:47:04.634Z,72.33
2018-02-03T17:49:33.216Z,64.23
2018-02-03T17:52:01.861Z,65.50
2018-02-03T17:54:31.078Z,67.73
2018-02-03T17:57:05.215Z,72.10
2018-02-03T17:59:34.038Z,150.00
2018-02-03T18:02:03.362Z,52.80
2018-02-03T18:04:32.086Z,53.27
2018-02-03T18:07:05.846Z,45.90
2018-02-03T18:09:35.262Z,51.53
2018-02-03T18:12:03.980Z,52.97
2018-02-03T18:14:32.970Z,44.83
2018-02-03T18:17:02.074Z,38.40
2018-02-03T18:19:30.761Z,39.07
2018-02-03T18:21:59.447Z,35.73
2018-02-03T18:27:03.014Z,28.13
2018-02-03T18:29:32.460Z,28.50
2018-02-03T18:32:01.146Z,36.37
2018-02-03T18:34:29.990Z,43.30
2018-02-03T18:36:59.408Z,40.40
2018-02-03T18:39:28.224Z,34.93
2018-02-03T18:41:57.020Z,39.00
2018-02-03T18:44:25.705Z,31.40
2018-02-03T18:46:54.392Z,41.07
2018-02-03T18:49:23.384Z,33.20
2018-02-03T18:51:52.476Z,31.70
2018-02-03T18:54:21.110Z,36.47
2018-02-03T18:56:50.727Z,50.27
2018-02-03T18:59:19.371Z,38.80
2018-02-03T19:01:48.140Z,43.57
2018-02-03T19:04:17.243Z,115.53
2018-02-03T19:06:46.275Z,34.30
2018-02-03T19:09:15.588Z,56.70
2018-02-03T19:11:45.382Z,67.57
2018-02-03T19:14:14.028Z,60.60
2018-02-03T19:16:42.713Z,76.60
2018-02-03T19:19:11.413Z,56.27
2018-02-03T19:21:40.085Z,55.83
2018-02-03T19:24:08.770Z,73.23
2018-02-03T19:26:37.565Z,78.63
2018-02-03T19:29:06.209Z,135.27
2018-02-03T19:31:34.936Z,163.10
2018-02-03T19:34:04.032Z,184.83
2018-02-03T19:36:32.616Z,123.57
2018-02-03T19:39:01.168Z,75.30
2018-02-03T19:41:29.924Z,70.80
2018-02-03T19:43:59.387Z,52.23
2018-02-03T19:46:28.018Z,56.17
2018-02-03T19:48:57.479Z,112.67
2018-02-03T19:51:26.124Z,90.30
2018-02-03T19:53:54.844Z,56.90
2018-02-03T19:56:23.532Z,49.23
2018-02-03T19:58:52.876Z,34.57
2018-02-03T20:01:22.339Z,40.43
2018-02-03T20:03:51.124Z,39.50
2018-02-03T20:06:19.716Z,58.07
2018-02-03T20:08:48.450Z,124.10
2018-02-03T20:11:17.488Z,134.80
2018-02-03T20:13:46.173Z,145.50
2018-02-03T20:16:14.764Z,121.10
2018-02-03T20:18:43.498Z,110.63
2018-02-03T20:21:12.915Z,104.43
2018-02-03T20:23:41.640Z,83.50
2018-02-03T20:26:10.525Z,82.57
2018-02-03T20:28:39.210Z,61.13
2018-02-03T20:31:07.800Z,173.40
2018-02-03T20:33:36.501Z,103.87
2018-02-03T20:36:05.177Z,113.10
2018-02-03T20:38:33.868Z,169.73
2018-02-03T20:41:02.847Z,219.33
2018-02-03T20:43:31.537Z,116.10
2018-02-03T20:46:00.171Z,80.23
2018-02-03T20:48:29.659Z,60.93
2018-02-03T20:50:59.128Z,48.50
2018-02-03T20:53:27.912Z,38.20
2018-02-03T20:55:56.707Z,17.40
2018-02-03T20:58:25.392Z,17.10
2018-02-03T21:00:54.000Z,21.97
2018-02-03T21:03:22.962Z,13.97
2018-02-03T21:05:51.614Z,15.60
2018-02-03T21:08:20.282Z,14.90
2018-02-03T21:10:49.941Z,22.37
2018-02-03T21:13:18.628Z,26.73
2018-02-03T21:15:47.312Z,34.83
2018-02-03T21:18:16.000Z,35.10
2018-02-03T21:20:44.647Z,34.17
2018-02-03T21:23:13.370Z,34.67
2018-02-03T21:25:42.165Z,29.77
2018-02-03T21:28:10.851Z,25.50
2018-02-03T21:30:39.430Z,34.10
2018-02-03T21:33:08.228Z,45.03
2018-02-03T21:35:36.903Z,29.27
2018-02-03T21:38:05.545Z,28.23
2018-02-03T21:40:35.366Z,19.97
2018-02-03T21:43:04.084Z,17.73
2018-02-03T21:45:32.728Z,22.27
2018-02-03T21:48:01.619Z,15.23
2018-02-03T21:50:31.066Z,15.33
2018-02-03T21:52:59.751Z,11.50
2018-02-03T21:55:28.645Z,12.33
2018-02-03T21:57:57.226Z,11.90
2018-02-03T22:00:25.917Z,6.30
2018-02-03T22:02:54.799Z,6.47
2018-02-03T22:05:23.487Z,8.97
2018-02-03T22:07:52.139Z,11.53
2018-02-03T22:10:20.968Z,8.40
2018-02-03T22:12:49.649Z,13.83
2018-02-03T22:15:18.289Z,13.90
2018-02-03T22:17:47.838Z,10.90
2018-02-03T22:20:16.479Z,8.13
2018-02-03T22:22:45.210Z,6.73
2018-02-03T22:25:14.005Z,9.00
2018-02-03T22:27:42.548Z,6.20
2018-02-03T22:30:11.226Z,14.50
2018-02-03T22:32:40.219Z,9.57
2018-02-03T22:35:08.862Z,10.47
2018-02-03T22:37:37.632Z,16.07
2018-02-03T22:40:06.625Z,12.80
2018-02-03T22:42:35.291Z,11.47
2018-02-03T22:45:03.960Z,11.57
2018-02-03T22:47:32.682Z,11.63
2018-02-03T22:50:01.320Z,8.70
2018-02-03T22:52:30.777Z,5.73
2018-02-03T22:54:59.464Z,8.30
2018-02-03T22:57:28.008Z,7.43
2018-02-03T22:59:56.726Z,6.10
2018-02-03T23:02:31.149Z,7.30
2018-02-03T23:04:59.777Z,9.67
2018-02-03T23:07:29.242Z,15.90
2018-02-03T23:09:58.437Z,11.90
2018-02-03T23:12:27.012Z,8.80
2018-02-03T23:14:55.709Z,7.57
2018-02-03T23:17:24.451Z,8.17
2018-02-03T23:19:53.180Z,6.07
2018-02-03T23:22:22.687Z,10.43
2018-02-03T23:24:51.878Z,13.23
2018-02-03T23:27:20.514Z,8.83
2018-02-03T23:29:49.973Z,6.23
2018-02-03T23:32:19.165Z,10.23
2018-02-03T23:34:47.961Z,7.93
2018-02-03T23:37:16.646Z,5.80
2018-02-03T23:39:45.480Z,9.80
2018-02-03T23:42:14.830Z,5.30
2018-02-03T23:44:43.466Z,7.97
2018-02-03T23:47:12.933Z,14.67
2018-02-03T23:49:41.597Z,13.63
2018-02-03T23:52:10.292Z,13.57
2018-02-03T23:54:38.988Z,7.80
2018-02-03T23:57:07.652Z,7.80
2018-02-03T23:59:36.348Z,11.83
